Time;durP1;ratioP1;P1;durP2;ratioP2;P2;SDS_P1;SDS_P2;PMS_P1;PMS_P2;Temp;Humidity;BMP_temperature;BMP_pressure;BME280_temperature;BME280_humidity;BME280_pressure;Samples;Min_cycle;Max_cycle;Signal;HPM_P1;HPM_P2
2023/12/25 00:00:59;;;;;;;6.23;0.53;;;;;;;;;;5011970;28;20546;-78
2023/12/25 00:03:25;;;;;;;7.90;1.73;;;;;;;;;;5012133;28;20634;-79
2023/12/25 00:05:51;;;;;;;6.47;1.50;;;;;;;;;;5026907;28;20180;-79
2023/12/25 00:08:17;;;;;;;5.07;0.90;;;;;;;;;;5012305;28;20642;-79
2023/12/25 00:10:43;;;;;;;6.20;2.33;;;;;;;;;;5015361;28;20199;-78
2023/12/25 00:13:09;;;;;;;3.60;0.90;;;;;;;;;;5015593;28;20536;-79
2023/12/25 00:15:35;;;;;;;3.70;0.53;;;;;;;;;;5015443;28;20191;-79
2023/12/25 00:18:01;;;;;;;3.27;0.50;;;;;;;;;;5015526;28;20411;-78
2023/12/25 00:20:27;;;;;;;6.80;0.30;;;;;;;;;;5015082;28;20428;-78
2023/12/25 00:22:53;;;;;;;4.97;0.40;;;;;;;;;;5015410;28;20406;-78
2023/12/25 00:25:18;;;;;;;6.90;0.50;;;;;;;;;;5030345;28;20434;-78
2023/12/25 00:27:44;;;;;;;6.63;0.80;;;;;;;;;;5015346;28;20412;-80
2023/12/25 00:30:11;;;;;;;7.37;0.70;;;;;;;;;;5015270;28;20180;-78
2023/12/25 00:32:37;;;;;;;3.23;0.60;;;;;;;;;;5015125;28;20652;-77
2023/12/25 00:35:03;;;;;;;3.43;0.23;;;;;;;;;;5014722;28;20501;-79
2023/12/25 00:37:29;;;;;;;4.77;0.60;;;;;;;;;;5014374;28;20756;-79
2023/12/25 00:39:55;;;;;;;2.83;0.47;;;;;;;;;;5015058;28;20507;-78
2023/12/25 00:42:21;;;;;;;3.90;0.20;;;;;;;;;;5015168;28;20846;-78
2023/12/25 00:44:47;;;;;;;1.40;0.20;;;;;;;;;;5015197;28;20403;-78
2023/12/25 00:47:13;;;;;;;6.20;0.40;;;;;;;;;;5015124;28;20438;-79
2023/12/25 00:49:39;;;;;;;3.77;0.40;;;;;;;;;;5014295;28;20426;-78
2023/12/25 00:52:05;;;;;;;7.57;0.30;;;;;;;;;;5014309;28;20477;-78
2023/12/25 00:54:31;;;;;;;4.23;0.20;;;;;;;;;;5014212;28;20855;-78
2023/12/25 00:56:58;;;;;;;2.83;0.70;;;;;;;;;;5014775;28;20507;-78
2023/12/25 00:59:24;;;;;;;6.33;0.83;;;;;;;;;;5014957;28;20953;-79
2023/12/25 01:01:50;;;;;;;1.80;0.20;;;;;;;;;;5014603;28;20468;-79
2023/12/25 01:04:16;;;;;;;6.20;0.40;;;;;;;;;;5014897;28;20785;-79
2023/12/25 01:06:42;;;;;;;4.10;0.70;;;;;;;;;;5014625;28;20837;-78
2023/12/25 01:09:08;;;;;;;5.20;0.67;;;;;;;;;;5014901;28;20747;-77
2023/12/25 01:11:40;;;;;;;5.43;0.47;;;;;;;;;;5014542;28;20553;-78
2023/12/25 01:14:06;;;;;;;2.90;0.50;;;;;;;;;;5012713;28;20974;-78
2023/12/25 01:16:32;;;;;;;4.10;0.50;;;;;;;;;;5014809;28;20423;-79
2023/12/25 01:18:58;;;;;;;5.43;0.30;;;;;;;;;;5014951;28;20403;-78
2023/12/25 01:21:24;;;;;;;3.27;0.40;;;;;;;;;;5014760;28;20429;-78
2023/12/25 01:23:50;;;;;;;2.60;0.23;;;;;;;;;;5015140;28;20460;-78
2023/12/25 01:26:16;;;;;;;6.57;0.40;;;;;;;;;;5015176;28;20902;-79
2023/12/25 01:28:42;;;;;;;4.03;0.77;;;;;;;;;;5015086;28;20787;-78
2023/12/25 01:31:08;;;;;;;3.47;0.73;;;;;;;;;;5030217;28;21150;-79
2023/12/25 01:33:34;;;;;;;5.97;0.60;;;;;;;;;;5015080;28;20453;-78
2023/12/25 01:36:00;;;;;;;2.30;0.27;;;;;;;;;;5029648;28;20432;-78
2023/12/25 01:38:26;;;;;;;5.90;0.50;;;;;;;;;;5014967;28;20437;-78
2023/12/25 01:40:52;;;;;;;4.27;0.70;;;;;;;;;;5014894;28;21121;-78
2023/12/25 01:43:17;;;;;;;3.57;0.20;;;;;;;;;;5014839;28;20425;-78
2023/12/25 01:45:43;;;;;;;5.90;0.60;;;;;;;;;;5014557;28;20773;-79
2023/12/25 01:48:09;;;;;;;1.73;0.20;;;;;;;;;;5013464;28;20253;-78
2023/12/25 01:50:35;;;;;;;4.53;0.93;;;;;;;;;;5014110;28;20634;-79
2023/12/25 01:53:02;;;;;;;2.53;0.53;;;;;;;;;;5014497;28;20423;-78
2023/12/25 01:55:28;;;;;;;1.90;0.40;;;;;;;;;;5014331;28;20463;-78
2023/12/25 01:57:54;;;;;;;6.93;0.60;;;;;;;;;;5014342;28;20905;-78
2023/12/25 02:00:19;;;;;;;3.53;0.40;;;;;;;;;;5014185;28;20495;-78
2023/12/25 02:02:46;;;;;;;3.97;0.50;;;;;;;;;;5029537;28;20905;-79
2023/12/25 02:05:11;;;;;;;2.37;0.40;;;;;;;;;;5013954;28;20424;-78
2023/12/25 02:07:39;;;;;;;7.57;0.53;;;;;;;;;;5014216;28;20490;-79
2023/12/25 02:10:06;;;;;;;4.00;0.40;;;;;;;;;;5013969;28;20407;-79
2023/12/25 02:12:32;;;;;;;3.23;0.40;;;;;;;;;;5014155;28;20428;-78
2023/12/25 02:14:58;;;;;;;2.53;0.50;;;;;;;;;;5014071;28;20467;-78
2023/12/25 02:17:24;;;;;;;8.13;0.67;;;;;;;;;;5014022;28;20176;-79
2023/12/25 02:19:51;;;;;;;1.73;0.20;;;;;;;;;;5013585;28;20872;-78
2023/12/25 02:22:17;;;;;;;4.93;0.70;;;;;;;;;;5028998;28;20486;-78
2023/12/25 02:24:56;;;;;;;11.43;0.60;;;;;;;;;;5013940;28;20426;-78
2023/12/25 02:27:22;;;;;;;7.93;0.40;;;;;;;;;;5013978;28;20404;-79
2023/12/25 02:29:48;;;;;;;8.00;0.90;;;;;;;;;;5013828;28;20412;-78
2023/12/25 02:32:14;;;;;;;4.30;0.60;;;;;;;;;;5012966;28;20214;-78
2023/12/25 02:34:40;;;;;;;3.90;0.50;;;;;;;;;;5028676;28;20427;-77
2023/12/25 02:37:06;;;;;;;4.77;0.73;;;;;;;;;;5013673;28;20781;-79
2023/12/25 02:39:32;;;;;;;4.90;0.40;;;;;;;;;;5013665;28;20408;-79
2023/12/25 02:41:57;;;;;;;6.43;0.27;;;;;;;;;;5013668;28;20424;-78
2023/12/25 02:44:23;;;;;;;3.27;0.67;;;;;;;;;;5013599;28;20193;-77
2023/12/25 02:46:49;;;;;;;2.60;0.30;;;;;;;;;;5013596;28;20412;-79
2023/12/25 02:49:15;;;;;;;8.20;0.60;;;;;;;;;;5013567;28;20606;-78
2023/12/25 02:51:41;;;;;;;6.40;0.80;;;;;;;;;;5028296;28;20216;-78
2023/12/25 02:54:07;;;;;;;5.23;0.40;;;;;;;;;;5013528;28;20531;-78
2023/12/25 02:56:33;;;;;;;2.40;0.63;;;;;;;;;;5013454;28;20902;-79
2023/12/25 02:58:59;;;;;;;7.90;1.20;;;;;;;;;;5013419;28;20181;-78
2023/12/25 03:01:25;;;;;;;3.73;0.50;;;;;;;;;;5013265;28;20777;-79
2023/12/25 03:03:51;;;;;;;7.40;0.40;;;;;;;;;;5013304;28;20176;-78
2023/12/25 03:06:16;;;;;;;3.97;0.77;;;;;;;;;;5013041;28;20469;-78
2023/12/25 03:08:42;;;;;;;3.57;0.50;;;;;;;;;;5013337;28;20420;-78
2023/12/25 03:11:09;;;;;;;6.87;0.70;;;;;;;;;;5013240;28;20452;-78
2023/12/25 03:13:35;;;;;;;7.60;1.13;;;;;;;;;;5013334;28;20451;-78
2023/12/25 03:16:07;;;;;;;5.43;1.00;;;;;;;;;;5013070;28;20918;-77
2023/12/25 03:18:33;;;;;;;9.33;0.40;;;;;;;;;;5013183;28;20472;-78
2023/12/25 03:20:59;;;;;;;8.07;0.80;;;;;;;;;;5012839;28;20404;-79
2023/12/25 03:23:25;;;;;;;4.63;0.80;;;;;;;;;;5013110;28;20418;-78
2023/12/25 03:25:51;;;;;;;4.60;0.70;;;;;;;;;;5013126;28;20498;-79
2023/12/25 03:28:17;;;;;;;3.70;0.40;;;;;;;;;;5028327;28;20648;-78
2023/12/25 03:30:46;;;;;;;10.63;0.50;;;;;;;;;;5013038;28;20464;-78
2023/12/25 03:33:12;;;;;;;5.90;0.43;;;;;;;;;;5013033;28;20187;-78
2023/12/25 03:35:38;;;;;;;3.97;0.40;;;;;;;;;;5012718;28;20507;-77
2023/12/25 03:38:04;;;;;;;6.27;1.80;;;;;;;;;;5012855;28;20607;-77
2023/12/25 03:40:30;;;;;;;7.40;0.63;;;;;;;;;;5012727;28;20426;-78
2023/12/25 03:42:56;;;;;;;4.17;0.27;;;;;;;;;;5013244;28;20176;-78
2023/12/25 03:45:22;;;;;;;6.20;0.87;;;;;;;;;;5016734;28;20177;-78
2023/12/25 03:47:48;;;;;;;5.40;0.40;;;;;;;;;;5016804;28;20420;-79
2023/12/25 03:50:13;;;;;;;5.63;0.67;;;;;;;;;;5015328;28;20184;-78
2023/12/25 03:52:39;;;;;;;3.73;0.53;;;;;;;;;;5016680;28;20983;-79
2023/12/25 03:55:08;;;;;;;5.07;0.37;;;;;;;;;;5016580;28;20407;-77
2023/12/25 03:57:34;;;;;;;7.60;0.53;;;;;;;;;;5016732;28;20177;-78
2023/12/25 04:00:00;;;;;;;6.30;0.87;;;;;;;;;;5015975;28;20419;-78
2023/12/25 04:02:26;;;;;;;8.07;1.23;;;;;;;;;;5015739;28;20470;-78
2023/12/25 04:04:52;;;;;;;3.43;0.40;;;;;;;;;;5016171;28;20483;-79
2023/12/25 04:07:18;;;;;;;7.27;0.57;;;;;;;;;;5016547;28;20622;-79
2023/12/25 04:09:44;;;;;;;4.40;0.50;;;;;;;;;;5016484;28;20406;-79
2023/12/25 04:12:10;;;;;;;2.80;1.10;;;;;;;;;;5016256;28;20220;-78
2023/12/25 04:14:39;;;;;;;6.23;0.30;;;;;;;;;;5016363;28;20629;-79
2023/12/25 04:17:04;;;;;;;9.23;2.13;;;;;;;;;;5016270;28;20177;-78
2023/12/25 04:19:30;;;;;;;9.23;0.70;;;;;;;;;;5015797;28;20957;-78
2023/12/25 04:21:56;;;;;;;3.57;0.70;;;;;;;;;;5016126;28;20469;-78
2023/12/25 04:24:22;;;;;;;4.20;0.40;;;;;;;;;;5016182;28;20411;-79
2023/12/25 04:26:48;;;;;;;6.30;0.83;;;;;;;;;;5016044;28;20173;-78
2023/12/25 04:29:14;;;;;;;5.43;0.33;;;;;;;;;;5016086;28;20181;-78
2023/12/25 04:31:40;;;;;;;8.23;0.70;;;;;;;;;;5015853;28;20208;-78
2023/12/25 04:34:06;;;;;;;5.40;1.20;;;;;;;;;;5016055;28;20184;-78
2023/12/25 04:36:31;;;;;;;8.33;1.93;;;;;;;;;;5030912;28;20420;-77
2023/12/25 04:39:01;;;;;;;6.83;0.90;;;;;;;;;;5015750;28;20635;-79
2023/12/25 04:41:27;;;;;;;9.13;0.83;;;;;;;;;;5015819;28;20213;-78
2023/12/25 04:43:53;;;;;;;7.93;2.07;;;;;;;;;;5015501;28;20419;-79
2023/12/25 04:46:20;;;;;;;7.37;1.20;;;;;;;;;;5015668;28;20512;-78
2023/12/25 04:48:46;;;;;;;7.10;0.83;;;;;;;;;;5015707;28;20474;-79
2023/12/25 04:51:12;;;;;;;6.37;0.80;;;;;;;;;;5015188;28;20489;-78
2023/12/25 04:53:38;;;;;;;2.93;0.40;;;;;;;;;;5015592;28;20419;-78
2023/12/25 04:56:04;;;;;;;8.40;1.27;;;;;;;;;;5014988;28;20486;-79
2023/12/25 04:58:30;;;;;;;3.50;0.50;;;;;;;;;;5015508;28;20404;-78
2023/12/25 05:00:56;;;;;;;4.63;0.57;;;;;;;;;;5015280;28;20450;-78
2023/12/25 05:03:22;;;;;;;8.33;1.70;;;;;;;;;;5015427;28;20406;-78
2023/12/25 05:05:48;;;;;;;9.20;1.30;;;;;;;;;;5014988;28;20411;-77
2023/12/25 05:08:14;;;;;;;9.23;1.37;;;;;;;;;;5015306;28;20417;-78
2023/12/25 05:10:40;;;;;;;4.97;1.00;;;;;;;;;;5015266;28;20510;-78
2023/12/25 05:13:06;;;;;;;5.43;0.60;;;;;;;;;;5015244;28;20414;-77
2023/12/25 05:15:32;;;;;;;5.47;0.90;;;;;;;;;;5015161;28;20408;-77
2023/12/25 05:17:58;;;;;;;11.73;2.30;;;;;;;;;;5015164;28;20419;-78
2023/12/25 05:20:24;;;;;;;10.63;1.70;;;;;;;;;;5014805;28;20415;-78
2023/12/25 05:22:50;;;;;;;9.73;1.37;;;;;;;;;;5014974;28;20891;-78
2023/12/25 05:25:16;;;;;;;13.00;1.70;;;;;;;;;;5015017;28;20179;-78
2023/12/25 05:27:42;;;;;;;9.37;0.80;;;;;;;;;;5030185;28;20202;-78
2023/12/25 05:30:08;;;;;;;8.37;1.30;;;;;;;;;;5014885;28;20419;-78
2023/12/25 05:32:35;;;;;;;4.13;1.00;;;;;;;;;;5030154;28;20446;-78
2023/12/25 05:35:03;;;;;;;12.10;1.90;;;;;;;;;;5014514;28;20760;-78
2023/12/25 05:37:29;;;;;;;7.03;0.83;;;;;;;;;;5014788;28;20431;-79
2023/12/25 05:39:55;;;;;;;4.73;0.70;;;;;;;;;;5014690;28;20411;-78
2023/12/25 05:42:21;;;;;;;12.33;0.93;;;;;;;;;;5014748;28;20613;-78
2023/12/25 05:44:47;;;;;;;6.27;0.67;;;;;;;;;;5014704;28;20410;-79
2023/12/25 05:47:13;;;;;;;9.93;1.07;;;;;;;;;;5014516;28;20421;-78
2023/12/25 05:49:39;;;;;;;10.60;1.30;;;;;;;;;;5014143;28;20411;-78
2023/12/25 05:52:08;;;;;;;6.10;1.03;;;;;;;;;;5014423;28;20468;-78
2023/12/25 05:54:34;;;;;;;7.93;0.87;;;;;;;;;;5014430;28;20406;-78
2023/12/25 05:57:00;;;;;;;4.87;1.07;;;;;;;;;;5014398;28;20943;-79
2023/12/25 05:59:26;;;;;;;7.73;1.00;;;;;;;;;;5014322;28;20454;-78
2023/12/25 06:01:52;;;;;;;5.80;0.97;;;;;;;;;;5014110;28;20505;-78
2023/12/25 06:04:18;;;;;;;9.00;1.07;;;;;;;;;;5013926;28;20414;-78
2023/12/25 06:06:44;;;;;;;9.10;1.33;;;;;;;;;;5013331;28;20476;-77
2023/12/25 06:09:11;;;;;;;11.07;1.70;;;;;;;;;;5014258;28;20915;-78
2023/12/25 06:11:38;;;;;;;8.17;1.30;;;;;;;;;;5014101;28;20485;-78
2023/12/25 06:14:04;;;;;;;7.27;0.80;;;;;;;;;;5014103;28;20884;-79
2023/12/25 06:16:30;;;;;;;6.43;0.50;;;;;;;;;;5029327;28;20518;-77
2023/12/25 06:18:56;;;;;;;4.10;0.87;;;;;;;;;;5013927;28;20898;-78
2023/12/25 06:21:22;;;;;;;10.00;1.40;;;;;;;;;;5013951;28;20183;-78
2023/12/25 06:23:48;;;;;;;9.83;1.03;;;;;;;;;;5014051;28;20407;-77
2023/12/25 06:26:13;;;;;;;6.87;1.27;;;;;;;;;;5014009;28;20409;-78
2023/12/25 06:28:39;;;;;;;5.40;1.20;;;;;;;;;;5013918;28;20413;-78
2023/12/25 06:31:05;;;;;;;8.03;1.60;;;;;;;;;;5028901;28;20206;-77
2023/12/25 06:33:33;;;;;;;10.30;1.03;;;;;;;;;;5013807;28;20187;-78
2023/12/25 06:35:59;;;;;;;7.93;2.53;;;;;;;;;;5013510;28;20276;-78
2023/12/25 06:38:25;;;;;;;8.47;0.83;;;;;;;;;;5013759;28;20511;-78
2023/12/25 06:40:50;;;;;;;8.50;1.27;;;;;;;;;;5013688;28;20633;-77
2023/12/25 06:43:16;;;;;;;10.30;1.27;;;;;;;;;;5013569;28;20418;-79
2023/12/25 06:45:42;;;;;;;8.70;1.40;;;;;;;;;;5013577;28;20591;-78
2023/12/25 06:48:08;;;;;;;15.00;1.57;;;;;;;;;;5013561;28;20464;-78
2023/12/25 06:50:34;;;;;;;7.80;0.90;;;;;;;;;;5028281;28;20829;-78
2023/12/25 06:53:00;;;;;;;11.70;1.97;;;;;;;;;;5013516;28;20426;-78
2023/12/25 06:55:26;;;;;;;8.23;2.13;;;;;;;;;;5013509;28;20461;-77
2023/12/25 06:57:52;;;;;;;9.87;1.10;;;;;;;;;;5013410;28;20187;-78
2023/12/25 07:00:18;;;;;;;11.10;1.30;;;;;;;;;;5013226;28;20779;-78
2023/12/25 07:02:44;;;;;;;8.23;1.33;;;;;;;;;;5013444;28;20428;-78
2023/12/25 07:05:11;;;;;;;8.77;1.23;;;;;;;;;;5013083;28;20407;-78
2023/12/25 07:07:37;;;;;;;6.37;0.70;;;;;;;;;;5013381;28;20176;-78
2023/12/25 07:10:03;;;;;;;9.53;1.27;;;;;;;;;;5013047;28;20422;-78
2023/12/25 07:12:29;;;;;;;13.53;2.93;;;;;;;;;;5013187;28;20549;-78
2023/12/25 07:14:55;;;;;;;8.17;0.80;;;;;;;;;;5013253;28;20847;-78
2023/12/25 07:17:21;;;;;;;10.53;1.33;;;;;;;;;;5013740;28;20253;-78
2023/12/25 07:19:47;;;;;;;14.90;2.00;;;;;;;;;;5017121;28;20452;-78
2023/12/25 07:22:14;;;;;;;9.67;1.40;;;;;;;;;;5017321;28;20433;-78
2023/12/25 07:24:43;;;;;;;10.53;1.43;;;;;;;;;;5017330;28;20475;-78
2023/12/25 07:27:09;;;;;;;13.40;1.97;;;;;;;;;;5017125;28;20739;-77
2023/12/25 07:29:34;;;;;;;7.97;1.40;;;;;;;;;;5017304;28;20421;-78
2023/12/25 07:32:00;;;;;;;7.83;0.90;;;;;;;;;;5017178;28;20489;-78
2023/12/25 07:34:28;;;;;;;12.07;1.20;;;;;;;;;;5016760;28;20174;-77
2023/12/25 07:36:54;;;;;;;10.17;1.73;;;;;;;;;;5017083;28;20253;-78
2023/12/25 07:39:20;;;;;;;16.50;2.00;;;;;;;;;;5017022;28;20451;-78
2023/12/25 07:41:46;;;;;;;6.53;1.27;;;;;;;;;;5017015;28;20410;-78
2023/12/25 07:44:12;;;;;;;15.90;2.80;;;;;;;;;;5016956;28;20224;-78
2023/12/25 07:46:38;;;;;;;10.83;1.50;;;;;;;;;;5016844;28;20421;-78
2023/12/25 07:49:04;;;;;;;8.07;0.77;;;;;;;;;;5016465;28;20399;-78
2023/12/25 07:51:30;;;;;;;14.40;2.73;;;;;;;;;;5016727;28;20543;-78
2023/12/25 07:53:56;;;;;;;6.40;0.80;;;;;;;;;;5016676;28;20517;-79
2023/12/25 07:56:22;;;;;;;13.23;2.20;;;;;;;;;;5016708;28;20467;-78
2023/12/25 07:58:48;;;;;;;14.57;2.23;;;;;;;;;;5016657;28;20198;-79
2023/12/25 08:01:14;;;;;;;17.90;2.30;;;;;;;;;;5015866;28;20549;-78
2023/12/25 08:03:40;;;;;;;10.57;1.63;;;;;;;;;;5016204;28;20416;-77
2023/12/25 08:06:07;;;;;;;13.17;2.60;;;;;;;;;;5016488;28;20759;-78
2023/12/25 08:08:33;;;;;;;10.23;2.27;;;;;;;;;;5016353;28;20413;-78
2023/12/25 08:10:59;;;;;;;8.97;2.53;;;;;;;;;;5016362;28;20995;-78
2023/12/25 08:13:24;;;;;;;11.00;1.97;;;;;;;;;;5016372;28;20196;-78
2023/12/25 08:15:50;;;;;;;14.67;2.67;;;;;;;;;;5016476;28;20402;-78
2023/12/25 08:18:16;;;;;;;12.17;2.23;;;;;;;;;;5015181;28;20804;-77
2023/12/25 08:20:42;;;;;;;13.50;2.10;;;;;;;;;;5015892;28;20430;-78
2023/12/25 08:23:08;;;;;;;17.70;2.17;;;;;;;;;;5016216;28;20422;-78
2023/12/25 08:25:34;;;;;;;15.43;2.00;;;;;;;;;;5016276;28;20171;-78
2023/12/25 08:28:00;;;;;;;11.93;1.73;;;;;;;;;;5016161;28;20413;-78
2023/12/25 08:30:26;;;;;;;8.97;1.83;;;;;;;;;;5014930;28;20479;-78
2023/12/25 08:32:52;;;;;;;11.07;2.03;;;;;;;;;;5014813;28;20407;-77
2023/12/25 08:35:18;;;;;;;9.43;1.80;;;;;;;;;;5015847;28;20634;-78
2023/12/25 08:37:47;;;;;;;6.73;1.47;;;;;;;;;;5016077;28;20414;-79
2023/12/25 08:40:13;;;;;;;11.30;1.80;;;;;;;;;;5016015;28;20423;-78
2023/12/25 08:42:39;;;;;;;13.60;1.53;;;;;;;;;;5015922;28;20465;-78
2023/12/25 08:45:06;;;;;;;14.17;2.00;;;;;;;;;;5015681;28;20426;-78
2023/12/25 08:47:32;;;;;;;12.13;1.57;;;;;;;;;;5015812;28;20411;-78
2023/12/25 08:49:58;;;;;;;13.03;1.70;;;;;;;;;;5015347;28;20781;-79
2023/12/25 08:52:24;;;;;;;11.23;1.43;;;;;;;;;;5015708;28;20501;-78
2023/12/25 08:54:50;;;;;;;18.30;2.77;;;;;;;;;;5015543;28;20426;-78
2023/12/25 08:57:16;;;;;;;13.83;1.97;;;;;;;;;;5015767;28;20422;-78
2023/12/25 08:59:43;;;;;;;9.07;2.10;;;;;;;;;;5016022;28;20575;-78
2023/12/25 09:02:09;;;;;;;12.40;2.17;;;;;;;;;;5015703;28;20468;-78
2023/12/25 09:04:35;;;;;;;13.70;2.20;;;;;;;;;;5015424;28;20989;-78
2023/12/25 09:07:01;;;;;;;11.93;2.07;;;;;;;;;;5015572;28;20414;-78
2023/12/25 09:09:27;;;;;;;12.40;2.30;;;;;;;;;;5015907;28;20418;-78
2023/12/25 09:11:53;;;;;;;12.33;2.60;;;;;;;;;;5015630;28;20536;-77
2023/12/25 09:14:20;;;;;;;12.10;2.57;;;;;;;;;;5015710;28;20914;-77
2023/12/25 09:16:47;;;;;;;14.00;1.77;;;;;;;;;;5015637;28;20452;-79
2023/12/25 09:19:12;;;;;;;17.57;2.60;;;;;;;;;;5014968;28;20502;-77
2023/12/25 09:21:39;;;;;;;12.13;1.60;;;;;;;;;;5015064;28;20892;-78
2023/12/25 09:24:06;;;;;;;12.93;2.37;;;;;;;;;;5014816;28;20540;-78
2023/12/25 09:26:32;;;;;;;13.40;2.00;;;;;;;;;;5014799;28;20451;-78
2023/12/25 09:28:58;;;;;;;17.50;2.77;;;;;;;;;;5014684;28;20413;-78
2023/12/25 09:31:24;;;;;;;16.80;3.20;;;;;;;;;;5013261;28;20518;-78
2023/12/25 09:33:50;;;;;;;19.77;2.60;;;;;;;;;;5014090;28;20406;-77
2023/12/25 09:36:16;;;;;;;22.20;4.57;;;;;;;;;;5014486;28;20423;-78
2023/12/25 09:38:41;;;;;;;12.80;2.23;;;;;;;;;;5014476;28;20413;-78
2023/12/25 09:41:10;;;;;;;14.00;1.87;;;;;;;;;;5014182;28;20424;-78
2023/12/25 09:43:41;;;;;;;15.20;3.47;;;;;;;;;;5014329;28;21008;-78
2023/12/25 09:46:08;;;;;;;20.77;3.40;;;;;;;;;;5014371;28;20411;-78
2023/12/25 09:48:35;;;;;;;11.13;2.23;;;;;;;;;;5013843;28;20415;-78
2023/12/25 09:51:04;;;;;;;14.03;2.73;;;;;;;;;;5014256;28;20469;-77
2023/12/25 09:53:30;;;;;;;13.40;1.83;;;;;;;;;;5014249;28;20410;-78
2023/12/25 09:55:57;;;;;;;19.93;3.83;;;;;;;;;;5014219;28;20485;-77
2023/12/25 09:58:23;;;;;;;13.80;2.80;;;;;;;;;;5014283;28;20173;-78
2023/12/25 10:00:49;;;;;;;15.40;2.20;;;;;;;;;;5014193;28;20783;-78
2023/12/25 10:03:16;;;;;;;15.60;3.53;;;;;;;;;;5014345;28;20406;-78
2023/12/25 10:05:42;;;;;;;13.53;1.90;;;;;;;;;;5014094;28;20419;-78
2023/12/25 10:08:14;;;;;;;21.63;2.87;;;;;;;;;;5014177;28;20407;-78
2023/12/25 10:10:40;;;;;;;17.87;2.70;;;;;;;;;;5014073;28;20199;-78
2023/12/25 10:13:06;;;;;;;14.23;3.07;;;;;;;;;;5012916;28;20426;-78
2023/12/25 10:15:31;;;;;;;13.13;2.17;;;;;;;;;;5014196;28;20226;-77
2023/12/25 10:18:05;;;;;;;12.07;2.40;;;;;;;;;;5014061;28;20429;-77
2023/12/25 10:20:31;;;;;;;17.53;3.50;;;;;;;;;;5013660;28;20175;-77
2023/12/25 10:23:00;;;;;;;10.53;2.70;;;;;;;;;;5012758;28;20429;-78
2023/12/25 10:25:30;;;;;;;15.87;3.30;;;;;;;;;;5013826;28;20485;-77
2023/12/25 10:27:56;;;;;;;9.90;1.10;;;;;;;;;;5013948;28;20407;-78
2023/12/25 10:30:23;;;;;;;11.90;3.33;;;;;;;;;;5013875;28;20763;-78
2023/12/25 10:32:49;;;;;;;14.87;2.73;;;;;;;;;;5012581;28;20469;-77
2023/12/25 10:35:17;;;;;;;17.57;2.30;;;;;;;;;;5013390;28;20415;-78
2023/12/25 10:37:45;;;;;;;12.70;2.27;;;;;;;;;;5013839;28;20800;-78
2023/12/25 10:40:18;;;;;;;13.53;2.70;;;;;;;;;;5013745;28;20450;-78
2023/12/25 10:42:45;;;;;;;15.87;2.70;;;;;;;;;;5013713;28;20416;-78
2023/12/25 10:45:11;;;;;;;17.57;3.93;;;;;;;;;;5012380;28;20771;-78
2023/12/25 10:47:37;;;;;;;14.60;3.03;;;;;;;;;;5013612;28;20419;-78
2023/12/25 10:50:04;;;;;;;12.20;2.60;;;;;;;;;;5013268;28;20412;-78
2023/12/25 10:52:30;;;;;;;15.83;2.53;;;;;;;;;;5012942;28;20471;-78
2023/12/25 10:54:56;;;;;;;19.43;3.17;;;;;;;;;;5013462;28;20430;-78
2023/12/25 10:57:23;;;;;;;14.87;2.53;;;;;;;;;;5013560;28;20424;-78
2023/12/25 10:59:49;;;;;;;13.10;2.40;;;;;;;;;;5013418;28;20415;-78
2023/12/25 11:02:16;;;;;;;18.70;2.53;;;;;;;;;;5013169;28;20555;-77
2023/12/25 11:04:52;;;;;;;14.93;2.80;;;;;;;;;;5013000;28;20426;-77
2023/12/25 11:07:19;;;;;;;21.20;3.10;;;;;;;;;;5013337;28;20415;-78
2023/12/25 11:09:45;;;;;;;21.00;2.90;;;;;;;;;;5012105;28;20787;-78
2023/12/25 11:12:12;;;;;;;13.47;2.40;;;;;;;;;;5013250;28;20562;-78
2023/12/25 11:14:38;;;;;;;18.40;2.27;;;;;;;;;;5013267;28;20449;-78
2023/12/25 11:17:04;;;;;;;11.63;2.83;;;;;;;;;;5013275;28;20413;-78
2023/12/25 11:19:30;;;;;;;14.60;2.40;;;;;;;;;;5011639;28;20477;-78
2023/12/25 11:21:56;;;;;;;20.40;2.83;;;;;;;;;;5011932;28;20564;-78
2023/12/25 11:24:27;;;;;;;21.07;4.07;;;;;;;;;;5013163;28;20552;-78
2023/12/25 11:27:02;;;;;;;16.77;3.30;;;;;;;;;;5013194;28;20949;-78
2023/12/25 11:29:31;;;;;;;13.97;3.20;;;;;;;;;;5013127;28;20405;-78
2023/12/25 11:32:06;;;;;;;14.80;2.70;;;;;;;;;;5013075;28;20562;-78
2023/12/25 11:34:38;;;;;;;13.50;4.07;;;;;;;;;;5012782;28;20411;-78
2023/12/25 11:37:17;;;;;;;17.67;3.83;;;;;;;;;;5011822;28;20809;-78
2023/12/25 11:39:48;;;;;;;9.80;1.90;;;;;;;;;;5013024;28;20477;-78
2023/12/25 11:42:14;;;;;;;16.23;2.83;;;;;;;;;;5013075;28;20812;-78
2023/12/25 11:44:41;;;;;;;10.90;1.90;;;;;;;;;;5011704;28;20425;-77
2023/12/25 11:47:07;;;;;;;15.60;2.87;;;;;;;;;;5013009;28;20444;-78
2023/12/25 11:49:34;;;;;;;10.57;2.30;;;;;;;;;;5012664;28;20817;-77
2023/12/25 11:52:00;;;;;;;14.83;2.60;;;;;;;;;;5012846;28;20473;-78
2023/12/25 11:54:29;;;;;;;14.10;2.63;;;;;;;;;;5012877;28;20497;-78
2023/12/25 11:56:58;;;;;;;18.90;2.33;;;;;;;;;;5012783;28;20410;-78
2023/12/25 11:59:23;;;;;;;14.00;3.30;;;;;;;;;;5012842;28;20758;-78
2023/12/25 12:01:49;;;;;;;17.70;2.80;;;;;;;;;;5012581;28;20468;-78
2023/12/25 12:04:17;;;;;;;16.33;2.50;;;;;;;;;;5014222;28;20996;-78
2023/12/25 12:06:43;;;;;;;12.00;2.27;;;;;;;;;;5016655;28;20163;-77
2023/12/25 12:09:09;;;;;;;11.70;2.40;;;;;;;;;;5016450;28;20808;-78
2023/12/25 12:11:35;;;;;;;19.90;4.43;;;;;;;;;;5015100;28;20486;-78
2023/12/25 12:14:04;;;;;;;18.63;3.10;;;;;;;;;;5016425;28;20410;-78
2023/12/25 12:16:30;;;;;;;12.80;2.03;;;;;;;;;;5016333;28;20405;-78
2023/12/25 12:18:56;;;;;;;12.90;3.50;;;;;;;;;;5015943;28;20406;-78
2023/12/25 12:21:22;;;;;;;11.90;1.93;;;;;;;;;;5016248;28;20518;-77
2023/12/25 12:23:48;;;;;;;10.87;2.10;;;;;;;;;;5016184;28;20425;-78
2023/12/25 12:26:15;;;;;;;13.07;2.20;;;;;;;;;;5016153;28;20408;-78
2023/12/25 12:28:42;;;;;;;15.90;2.07;;;;;;;;;;5016080;28;20776;-78
2023/12/25 12:31:08;;;;;;;11.67;2.20;;;;;;;;;;5016293;28;20463;-78
2023/12/25 12:33:34;;;;;;;12.73;1.57;;;;;;;;;;5015961;28;20404;-78
2023/12/25 12:36:02;;;;;;;12.03;2.43;;;;;;;;;;5016150;28;20926;-78
2023/12/25 12:38:28;;;;;;;10.57;1.43;;;;;;;;;;5015929;28;20414;-78
2023/12/25 12:40:54;;;;;;;9.50;2.50;;;;;;;;;;5016161;28;20441;-78
2023/12/25 12:43:20;;;;;;;9.23;1.87;;;;;;;;;;5016178;28;20553;-78
2023/12/25 12:45:47;;;;;;;9.07;2.30;;;;;;;;;;5015930;28;20830;-81
2023/12/25 12:48:13;;;;;;;12.13;2.10;;;;;;;;;;5015602;28;20421;-78
2023/12/25 12:50:39;;;;;;;13.43;1.50;;;;;;;;;;5015696;28;20453;-79
2023/12/25 12:53:11;;;;;;;8.07;1.30;;;;;;;;;;5016100;28;20421;-78
2023/12/25 12:55:37;;;;;;;18.40;3.10;;;;;;;;;;5015770;28;20414;-78
2023/12/25 12:58:07;;;;;;;13.23;2.60;;;;;;;;;;5015587;28;20444;-79
2023/12/25 13:00:33;;;;;;;11.67;1.60;;;;;;;;;;5014390;28;20412;-78
2023/12/25 13:02:59;;;;;;;8.60;1.97;;;;;;;;;;5015341;28;20448;-78
2023/12/25 13:05:26;;;;;;;13.13;2.97;;;;;;;;;;5014284;28;20442;-78
2023/12/25 13:07:52;;;;;;;15.57;2.10;;;;;;;;;;5015648;28;20417;-79
2023/12/25 13:10:23;;;;;;;10.20;2.00;;;;;;;;;;5015595;28;20501;-78
2023/12/25 13:12:49;;;;;;;7.07;0.97;;;;;;;;;;5015647;28;20430;-78
2023/12/25 13:15:15;;;;;;;7.43;1.53;;;;;;;;;;5013624;28;20420;-76
2023/12/25 13:17:41;;;;;;;15.03;2.30;;;;;;;;;;5015558;28;20555;-78
2023/12/25 13:20:09;;;;;;;15.10;2.90;;;;;;;;;;5015064;28;20424;-77
2023/12/25 13:22:36;;;;;;;13.10;2.17;;;;;;;;;;5015498;28;20421;-78
2023/12/25 13:25:04;;;;;;;15.50;3.70;;;;;;;;;;5014125;28;20797;-78
2023/12/25 13:27:30;;;;;;;11.37;1.13;;;;;;;;;;5014120;28;20428;-77
2023/12/25 13:29:56;;;;;;;8.90;1.30;;;;;;;;;;5015389;28;20470;-77
2023/12/25 13:32:22;;;;;;;10.07;1.20;;;;;;;;;;5015101;28;21157;-77
2023/12/25 13:34:48;;;;;;;10.73;2.40;;;;;;;;;;5014672;28;20419;-77
2023/12/25 13:37:14;;;;;;;13.17;1.60;;;;;;;;;;5014863;28;20980;-78
2023/12/25 13:39:41;;;;;;;13.73;2.77;;;;;;;;;;5014752;28;20223;-77
2023/12/25 13:42:08;;;;;;;9.43;1.33;;;;;;;;;;5014637;28;20184;-77
2023/12/25 13:44:34;;;;;;;12.60;1.77;;;;;;;;;;5014528;28;20415;-78
2023/12/25 13:47:00;;;;;;;8.80;1.27;;;;;;;;;;5014543;28;20431;-77
2023/12/25 13:49:25;;;;;;;7.80;1.27;;;;;;;;;;5014097;28;20426;-77
2023/12/25 13:51:51;;;;;;;11.43;1.90;;;;;;;;;;5014328;28;20533;-77
2023/12/25 13:54:17;;;;;;;13.43;1.50;;;;;;;;;;5014210;28;20176;-76
2023/12/25 13:56:43;;;;;;;12.93;2.97;;;;;;;;;;5014428;28;20187;-77
2023/12/25 13:59:09;;;;;;;10.23;2.40;;;;;;;;;;5013202;28;20184;-76
2023/12/25 14:01:35;;;;;;;14.43;2.03;;;;;;;;;;5014068;28;20482;-77
2023/12/25 14:04:01;;;;;;;17.83;2.40;;;;;;;;;;5014055;28;20168;-77
2023/12/25 14:06:27;;;;;;;17.57;3.10;;;;;;;;;;5014179;28;20430;-77
2023/12/25 14:08:53;;;;;;;14.23;2.40;;;;;;;;;;5014105;28;20414;-77
2023/12/25 14:11:19;;;;;;;15.80;3.53;;;;;;;;;;5012959;28;20849;-78
2023/12/25 14:13:45;;;;;;;13.47;2.20;;;;;;;;;;5014203;28;20537;-77
2023/12/25 14:16:12;;;;;;;14.40;2.60;;;;;;;;;;5014211;28;20424;-77
2023/12/25 14:18:38;;;;;;;16.90;2.60;;;;;;;;;;5013853;28;20196;-77
2023/12/25 14:21:04;;;;;;;19.37;2.40;;;;;;;;;;5014073;28;20420;-77
2023/12/25 14:23:30;;;;;;;12.07;1.87;;;;;;;;;;5013902;28;20926;-77
2023/12/25 14:25:56;;;;;;;12.67;2.17;;;;;;;;;;5013951;28;20422;-77
2023/12/25 14:28:22;;;;;;;10.80;1.73;;;;;;;;;;5013005;28;20499;-77
2023/12/25 14:30:48;;;;;;;14.73;2.23;;;;;;;;;;5013769;28;20208;-77